createdAt,value
2022-08-30T00:01:43.585Z,18.31
2022-08-30T00:07:14.627Z,18.27
2022-08-30T00:12:45.580Z,18.20
2022-08-30T00:18:18.552Z,18.13
2022-08-30T00:23:49.994Z,18.11
2022-08-30T00:29:21.281Z,18.05
2022-08-30T00:34:53.819Z,17.98
2022-08-30T00:40:27.153Z,17.94
2022-08-30T00:45:59.105Z,17.90
2022-08-30T00:51:31.989Z,17.88
2022-08-30T00:57:04.076Z,17.83
2022-08-30T01:02:35.430Z,17.80
2022-08-30T01:08:07.004Z,17.78
2022-08-30T01:13:38.390Z,17.74
2022-08-30T01:19:40.110Z,17.70
2022-08-30T01:25:12.315Z,17.65
2022-08-30T01:30:43.685Z,17.64
2022-08-30T01:36:15.299Z,17.59
2022-08-30T01:41:46.547Z,17.57
2022-08-30T01:47:19.003Z,17.53
2022-08-30T01:52:49.907Z,17.50
2022-08-30T01:58:21.018Z,17.46
2022-08-30T02:03:54.513Z,17.44
2022-08-30T02:09:25.826Z,17.39
2022-08-30T02:14:58.202Z,17.35
2022-08-30T02:20:29.294Z,17.30
2022-08-30T02:26:01.558Z,17.28
2022-08-30T02:31:32.545Z,17.23
2022-08-30T02:37:03.527Z,17.19
2022-08-30T02:42:34.718Z,17.17
2022-08-30T02:48:05.880Z,17.15
2022-08-30T02:53:37.636Z,17.11
2022-08-30T02:59:08.912Z,17.09
2022-08-30T03:04:40.349Z,17.08
2022-08-30T03:10:11.769Z,17.05
2022-08-30T03:15:45.332Z,17.02
2022-08-30T03:21:17.307Z,16.99
2022-08-30T03:26:48.232Z,16.96
2022-08-30T03:32:19.619Z,16.94
2022-08-30T03:37:55.883Z,16.91
2022-08-30T03:43:27.852Z,16.90
2022-08-30T03:49:00.717Z,16.88
2022-08-30T03:54:31.936Z,16.88
2022-08-30T04:00:05.171Z,16.83
2022-08-30T04:05:42.530Z,16.80
2022-08-30T04:11:15.216Z,16.79
2022-08-30T04:16:46.351Z,16.76
2022-08-30T04:22:18.270Z,16.75
2022-08-30T04:27:49.503Z,16.72
2022-08-30T04:33:21.005Z,16.69
2022-08-30T04:38:51.947Z,16.68
2022-08-30T04:44:23.106Z,16.66
2022-08-30T04:49:54.555Z,16.66
2022-08-30T04:55:26.043Z,16.65
2022-08-30T05:00:57.785Z,16.64
2022-08-30T05:06:31.874Z,16.63
2022-08-30T05:12:03.097Z,16.61
2022-08-30T05:17:34.424Z,16.62
2022-08-30T05:23:08.237Z,16.62
2022-08-30T05:28:39.481Z,16.61
2022-08-30T05:34:11.604Z,16.61
2022-08-30T05:39:51.110Z,16.63
2022-08-30T05:45:23.103Z,16.63
2022-08-30T05:51:04.570Z,16.62
2022-08-30T05:56:37.854Z,16.62
2022-08-30T06:02:09.879Z,16.64
2022-08-30T06:07:43.672Z,16.65
2022-08-30T06:13:15.715Z,16.69
2022-08-30T06:18:47.924Z,16.74
2022-08-30T06:24:27.796Z,16.80
2022-08-30T06:30:09.028Z,16.89
2022-08-30T06:35:56.739Z,16.96
2022-08-30T06:41:32.906Z,17.05
2022-08-30T06:47:04.490Z,17.13
2022-08-30T06:52:35.838Z,17.22
2022-08-30T06:58:06.846Z,17.29
2022-08-30T07:03:38.312Z,17.39
2022-08-30T07:09:09.597Z,17.50
2022-08-30T07:14:41.579Z,17.58
2022-08-30T07:20:14.560Z,17.65
2022-08-30T07:25:45.648Z,17.69
2022-08-30T07:31:17.473Z,17.76
2022-08-30T07:36:51.753Z,17.84
2022-08-30T07:42:22.736Z,17.94
2022-08-30T07:47:54.039Z,18.03
2022-08-30T07:53:25.814Z,18.14
2022-08-30T07:58:57.028Z,18.22
2022-08-30T08:04:28.786Z,18.27
2022-08-30T08:09:59.784Z,18.32
2022-08-30T08:15:30.769Z,18.42
2022-08-30T08:21:02.599Z,18.53
2022-08-30T08:26:38.052Z,18.61
2022-08-30T08:32:12.196Z,18.66
2022-08-30T08:37:43.590Z,18.77
2022-08-30T08:43:16.747Z,18.88
2022-08-30T08:48:59.927Z,19.00
2022-08-30T08:54:42.541Z,19.12
2022-08-30T09:00:16.114Z,19.15
2022-08-30T09:05:47.802Z,19.22
2022-08-30T09:11:26.918Z,19.25
2022-08-30T09:17:06.894Z,19.30
2022-08-30T09:22:46.609Z,19.30
2022-08-30T09:28:33.670Z,19.40
2022-08-30T09:34:10.088Z,19.54
2022-08-30T09:39:44.384Z,19.68
2022-08-30T09:45:22.420Z,19.78
2022-08-30T09:51:11.885Z,19.91
2022-08-30T09:56:48.370Z,19.99
2022-08-30T10:02:58.129Z,20.02
2022-08-30T10:08:51.559Z,20.01
2022-08-30T10:14:29.602Z,20.05
2022-08-30T10:20:01.020Z,20.13
2022-08-30T10:25:51.285Z,20.24
2022-08-30T10:31:40.705Z,20.31
2022-08-30T10:37:16.758Z,20.34
2022-08-30T10:42:49.437Z,20.39
2022-08-30T10:48:20.541Z,20.46
2022-08-30T10:53:56.324Z,20.50
2022-08-30T10:59:28.284Z,20.56
2022-08-30T11:05:18.461Z,20.59
2022-08-30T11:11:20.956Z,20.63
2022-08-30T11:16:54.404Z,20.66
2022-08-30T11:22:36.815Z,20.70
2022-08-30T11:28:10.370Z,20.75
2022-08-30T11:33:52.001Z,20.75
2022-08-30T11:39:57.055Z,20.75
2022-08-30T11:45:29.959Z,20.78
2022-08-30T11:51:07.381Z,20.73
2022-08-30T11:57:24.160Z,20.75
2022-08-30T12:03:06.812Z,20.78
2022-08-30T12:08:44.911Z,20.87
2022-08-30T12:14:52.877Z,20.95
2022-08-30T12:20:47.780Z,21.01
2022-08-30T12:26:41.176Z,21.02
2022-08-30T12:32:20.771Z,21.02
2022-08-30T12:38:06.110Z,21.10
2022-08-30T12:43:41.413Z,21.20
2022-08-30T12:49:15.361Z,21.35
2022-08-30T12:54:46.945Z,21.34
2022-08-30T13:00:43.996Z,21.34
2022-08-30T13:06:37.781Z,21.43
2022-08-30T13:12:20.223Z,21.52
2022-08-30T13:18:16.840Z,21.58
2022-08-30T13:24:00.001Z,21.62
2022-08-30T13:29:32.937Z,21.56
2022-08-30T13:35:29.690Z,21.53
2022-08-30T13:41:01.757Z,21.59
2022-08-30T13:46:33.231Z,21.56
2022-08-30T13:52:20.419Z,21.53
2022-08-30T13:57:54.526Z,21.51
2022-08-30T14:03:36.804Z,21.46
2022-08-30T14:09:13.024Z,21.46
2022-08-30T14:14:47.927Z,21.49
2022-08-30T14:20:20.239Z,21.49
2022-08-30T14:25:54.575Z,21.54
2022-08-30T14:31:27.181Z,21.57
2022-08-30T14:37:03.109Z,21.57
2022-08-30T14:42:34.186Z,21.59
2022-08-30T14:48:11.488Z,21.60
2022-08-30T14:53:43.398Z,21.59
2022-08-30T14:59:14.972Z,21.51
2022-08-30T15:04:46.712Z,21.48
2022-08-30T15:10:21.977Z,21.48
2022-08-30T15:15:54.496Z,21.45
2022-08-30T15:21:36.728Z,21.44
2022-08-30T15:27:36.344Z,21.42
2022-08-30T15:33:09.255Z,21.36
2022-08-30T15:38:41.427Z,21.30
2022-08-30T15:44:15.619Z,21.22
2022-08-30T15:49:58.293Z,21.15
2022-08-30T15:55:30.776Z,21.06
2022-08-30T16:01:05.885Z,20.94
2022-08-30T16:06:37.676Z,20.86
2022-08-30T16:12:10.007Z,20.79
2022-08-30T16:17:41.722Z,20.75
2022-08-30T16:23:13.395Z,20.73
2022-08-30T16:28:46.861Z,20.67
2022-08-30T16:34:20.221Z,20.64
2022-08-30T16:39:51.661Z,20.66
2022-08-30T16:45:24.076Z,20.66
2022-08-30T16:50:56.906Z,20.67
2022-08-30T16:56:29.638Z,20.66
2022-08-30T17:02:01.153Z,20.64
2022-08-30T17:07:32.748Z,20.60
2022-08-30T17:13:07.897Z,20.56
2022-08-30T17:18:39.574Z,20.53
2022-08-30T17:24:18.385Z,20.46
2022-08-30T17:29:49.899Z,20.54
2022-08-30T17:35:25.340Z,20.64
2022-08-30T17:41:08.315Z,20.70
2022-08-30T17:46:39.887Z,20.73
2022-08-30T17:52:23.306Z,20.71
2022-08-30T17:58:03.369Z,20.71
2022-08-30T18:03:35.296Z,20.69
2022-08-30T18:09:08.535Z,20.67
2022-08-30T18:14:41.058Z,20.63
2022-08-30T18:20:12.757Z,20.61
2022-08-30T18:26:00.536Z,20.56
2022-08-30T18:31:44.746Z,20.53
2022-08-30T18:37:18.910Z,20.51
2022-08-30T18:42:50.459Z,20.47
2022-08-30T18:48:22.859Z,20.43
2022-08-30T18:53:58.766Z,20.38
2022-08-30T18:59:36.605Z,20.35
2022-08-30T19:05:23.863Z,20.32
2022-08-30T19:10:58.941Z,20.29
2022-08-30T19:16:36.553Z,20.26
2022-08-30T19:22:08.457Z,20.22
2022-08-30T19:27:40.299Z,20.19
2022-08-30T19:33:16.525Z,20.18
2022-08-30T19:38:49.143Z,20.14
2022-08-30T19:44:20.975Z,20.12
2022-08-30T19:49:52.387Z,20.08
2022-08-30T20:01:33.264Z,20.00
2022-08-30T20:07:06.682Z,19.97
2022-08-30T20:12:49.592Z,19.94
2022-08-30T20:18:26.283Z,19.89
2022-08-30T20:23:58.711Z,19.85
2022-08-30T20:29:30.261Z,19.82
2022-08-30T20:35:01.698Z,19.78
2022-08-30T20:40:37.841Z,19.74
2022-08-30T20:46:15.544Z,19.70
2022-08-30T20:51:52.821Z,19.66
2022-08-30T20:57:25.411Z,19.62
2022-08-30T21:02:56.693Z,19.58
2022-08-30T21:08:27.999Z,19.56
2022-08-30T21:13:59.233Z,19.53
2022-08-30T21:19:30.279Z,19.50
2022-08-30T21:25:02.507Z,19.46
2022-08-30T21:30:35.103Z,19.41
2022-08-30T21:36:26.531Z,19.41
2022-08-30T21:41:58.124Z,19.36
2022-08-30T21:47:29.469Z,19.34
2022-08-30T21:53:00.938Z,19.31
2022-08-30T21:58:32.077Z,19.26
2022-08-30T22:04:05.664Z,19.23
2022-08-30T22:09:36.952Z,19.16
2022-08-30T22:15:08.295Z,19.12
2022-08-30T22:20:39.392Z,19.06
2022-08-30T22:26:12.449Z,19.02
2022-08-30T22:31:43.523Z,18.99
2022-08-30T22:37:16.213Z,18.95
2022-08-30T22:42:48.579Z,18.91
2022-08-30T22:48:19.887Z,18.86
2022-08-30T22:53:51.011Z,18.84
2022-08-30T22:59:30.409Z,18.81
2022-08-30T23:05:04.451Z,18.76
2022-08-30T23:10:35.911Z,18.72
2022-08-30T23:16:08.547Z,18.69
2022-08-30T23:21:39.946Z,18.65
2022-08-30T23:27:30.108Z,18.61
2022-08-30T23:33:19.664Z,18.58
2022-08-30T23:39:09.699Z,18.54
2022-08-30T23:44:59.439Z,18.50
2022-08-30T23:50:49.158Z,18.47
2022-08-30T23:56:38.913Z,18.42
